Acequia, Idaho
Current Conditions -  °F | °C
As of 8:53 AM on Thursday 30 Oct 2014 (Local Time) from KBYI Reporting Station
Clear Clear  
Wind Chill: 33°   Ceiling: Unl
Heat Index: 39°   Visibility: 10mi
Dew Point: 31°   Wind: 8mph
Humidity: 73%   Direction: 60°ENE
Pressure: 30.22"   Gusts: NA
Location:  42.6416°N, 113.637°W
Report Text: KBYI 301453Z AUTO 06007KT 10SM CLR 04/M01 A3022 RMK AO2 SLP231 T00391006 55001
Loading
Personal Weather Stations






























Interactive Weather Map New forecast layout! Learn more

10-Day Weather Forecast

Advertisements
Track Severe Weather on mobile